Time;durP1;ratioP1;P1;durP2;ratioP2;P2;SDS_P1;SDS_P2;PMS_P1;PMS_P2;Temp;Humidity;BMP_temperature;BMP_pressure;BME280_temperature;BME280_humidity;BME280_pressure;Samples;Min_cycle;Max_cycle;Signal;HPM_P1;HPM_P2
2023/08/22 00:01:56;;;;;;;0.40;0.40;;;21.60;99.90;;;;;;4413558;32;20054;-66
2023/08/22 00:04:22;;;;;;;0.20;0.20;;;21.60;99.90;;;;;;4413606;32;20049;-66
2023/08/22 00:06:47;;;;;;;3.83;1.10;;;21.70;99.90;;;;;;4413575;32;20046;-66
2023/08/22 00:09:13;;;;;;;0.50;0.37;;;21.60;99.90;;;;;;4415114;32;20058;-67
2023/08/22 00:11:38;;;;;;;0.20;0.20;;;21.50;99.90;;;;;;4413905;32;20071;-66
2023/08/22 00:14:04;;;;;;;0.30;0.30;;;21.60;99.90;;;;;;4414402;32;20132;-66
2023/08/22 00:16:29;;;;;;;0.73;0.73;;;21.50;99.90;;;;;;4414659;32;20102;-67
2023/08/22 00:18:55;;;;;;;0.30;0.30;;;21.50;99.90;;;;;;4413408;32;20067;-66
2023/08/22 00:21:21;;;;;;;0.55;0.55;;;21.50;99.90;;;;;;4412046;32;20125;-66
2023/08/22 00:23:46;;;;;;;0.20;0.20;;;21.40;99.90;;;;;;4414243;32;20066;-66
2023/08/22 00:26:12;;;;;;;0.30;0.30;;;21.40;99.90;;;;;;4414205;32;20058;-66
2023/08/22 00:28:37;;;;;;;0.30;0.30;;;21.50;99.90;;;;;;4413848;32;20130;-64
2023/08/22 00:31:02;;;;;;;1.42;0.50;;;21.50;99.90;;;;;;4414307;32;20042;-66
2023/08/22 00:33:28;;;;;;;0.20;0.20;;;21.50;99.90;;;;;;4414105;32;20086;-64
2023/08/22 00:35:53;;;;;;;0.30;0.30;;;21.50;99.90;;;;;;4412388;32;20070;-63
2023/08/22 00:38:19;;;;;;;0.20;0.20;;;21.50;99.90;;;;;;4412562;32;20310;-66
2023/08/22 00:40:44;;;;;;;2.72;0.40;;;21.50;99.90;;;;;;4414882;32;20123;-66
2023/08/22 00:43:10;;;;;;;0.40;0.40;;;21.40;99.90;;;;;;4412296;32;20137;-65
2023/08/22 00:45:36;;;;;;;0.50;0.50;;;21.40;99.90;;;;;;4412902;32;20202;-66
2023/08/22 00:48:02;;;;;;;0.60;0.60;;;21.40;99.90;;;;;;4413457;32;20071;-66
2023/08/22 00:50:28;;;;;;;0.20;0.20;;;21.30;99.90;;;;;;4412603;32;20106;-66
2023/08/22 00:52:53;;;;;;;0.40;0.40;;;21.30;99.90;;;;;;4413581;32;20097;-66
2023/08/22 00:55:19;;;;;;;0.50;0.50;;;21.30;99.90;;;;;;4413040;32;20359;-66
2023/08/22 00:57:44;;;;;;;0.60;0.60;;;21.40;99.90;;;;;;4410794;32;20097;-66
2023/08/22 01:00:10;;;;;;;0.20;0.20;;;21.30;99.90;;;;;;4412505;32;20094;-66
2023/08/22 01:02:38;;;;;;;2.92;0.93;;;21.30;99.90;;;;;;4412264;32;20074;-66
2023/08/22 01:05:05;;;;;;;0.30;0.30;;;21.30;99.90;;;;;;4412829;32;20074;-66
2023/08/22 01:07:35;;;;;;;0.28;0.28;;;21.30;99.90;;;;;;4413698;32;20095;-67
2023/08/22 01:10:07;;;;;;;0.40;0.40;;;21.30;99.90;;;;;;4414533;32;20124;-66
2023/08/22 01:12:49;;;;;;;0.40;0.40;;;21.20;99.90;;;;;;4414528;32;20054;-66
2023/08/22 01:15:24;;;;;;;0.40;0.40;;;21.30;99.90;;;;;;4416687;32;20070;-67
2023/08/22 01:17:53;;;;;;;1.08;0.80;;;21.20;99.90;;;;;;4415014;32;20042;-66
2023/08/22 01:20:19;;;;;;;0.45;0.40;;;21.20;99.90;;;;;;4414987;32;20063;-66
2023/08/22 01:22:45;;;;;;;0.35;0.35;;;21.30;99.90;;;;;;4416066;32;20088;-66
2023/08/22 01:25:10;;;;;;;0.35;0.35;;;21.20;99.90;;;;;;4412117;32;20077;-67
2023/08/22 01:28:04;;;;;;;1.00;0.65;;;21.20;99.90;;;;;;4412311;32;20058;-66
2023/08/22 01:30:43;;;;;;;0.50;0.45;;;21.20;99.90;;;;;;4401841;32;20180;-66
2023/08/22 01:33:19;;;;;;;0.37;0.37;;;21.10;99.90;;;;;;4412390;32;20128;-66
2023/08/22 01:35:47;;;;;;;0.30;0.30;;;21.20;99.90;;;;;;4414793;32;20049;-67
2023/08/22 01:38:13;;;;;;;0.80;0.52;;;21.20;99.90;;;;;;4414233;32;20082;-66
2023/08/22 01:40:39;;;;;;;0.32;0.32;;;21.20;99.90;;;;;;4414455;32;20067;-66
2023/08/22 01:43:05;;;;;;;0.43;0.43;;;21.10;99.90;;;;;;4414621;32;20195;-65
2023/08/22 01:45:30;;;;;;;0.50;0.50;;;21.00;99.90;;;;;;4414807;32;20141;-67
2023/08/22 01:47:56;;;;;;;0.20;0.20;;;21.10;99.90;;;;;;4415177;32;20089;-66
2023/08/22 01:50:21;;;;;;;0.32;0.32;;;21.00;99.90;;;;;;4414056;32;20126;-66
2023/08/22 01:52:47;;;;;;;0.40;0.40;;;21.00;99.90;;;;;;4415987;32;20105;-66
2023/08/22 01:55:14;;;;;;;0.30;0.30;;;21.00;99.90;;;;;;4415445;32;20074;-66
2023/08/22 01:57:39;;;;;;;0.30;0.30;;;21.10;99.90;;;;;;4415251;32;20070;-66
2023/08/22 02:00:07;;;;;;;1.23;0.52;;;21.00;99.90;;;;;;4415265;32;20051;-66
2023/08/22 02:02:32;;;;;;;0.30;0.30;;;20.90;99.90;;;;;;4415412;32;20062;-66
2023/08/22 02:04:58;;;;;;;0.30;0.30;;;20.90;99.90;;;;;;4415140;32;20078;-66
2023/08/22 02:07:23;;;;;;;0.37;0.30;;;20.90;99.90;;;;;;4415199;32;20055;-66
2023/08/22 02:09:49;;;;;;;0.30;0.30;;;20.90;99.90;;;;;;4415645;32;20129;-66
2023/08/22 02:12:14;;;;;;;0.25;0.25;;;20.90;99.90;;;;;;4414333;32;20039;-66
2023/08/22 02:14:40;;;;;;;0.80;0.80;;;20.90;99.90;;;;;;4414765;32;20038;-66
2023/08/22 02:17:05;;;;;;;0.22;0.22;;;20.90;99.90;;;;;;4415700;32;20288;-66
2023/08/22 02:19:30;;;;;;;0.60;0.50;;;20.90;99.90;;;;;;4414818;32;20093;-66
2023/08/22 02:21:56;;;;;;;0.40;0.40;;;21.00;99.90;;;;;;4414866;32;20073;-66
2023/08/22 02:24:21;;;;;;;0.82;0.40;;;20.90;99.90;;;;;;4416022;32;20035;-66
2023/08/22 02:26:47;;;;;;;0.30;0.30;;;20.90;99.90;;;;;;4415289;32;20042;-66
2023/08/22 02:29:12;;;;;;;0.47;0.47;;;21.00;99.90;;;;;;4415443;32;20082;-66
2023/08/22 02:31:38;;;;;;;0.32;0.32;;;21.00;99.90;;;;;;4414943;32;20082;-66
2023/08/22 02:34:04;;;;;;;0.32;0.32;;;21.00;99.90;;;;;;4417447;32;20050;-66
2023/08/22 02:36:29;;;;;;;0.30;0.30;;;21.00;99.90;;;;;;4416786;32;20069;-66
2023/08/22 02:38:55;;;;;;;0.45;0.45;;;21.00;99.90;;;;;;4416542;32;20108;-66
2023/08/22 02:41:20;;;;;;;0.25;0.20;;;21.00;99.90;;;;;;4416483;32;20046;-64
2023/08/22 02:43:46;;;;;;;0.30;0.30;;;20.90;99.90;;;;;;4416594;32;20138;-63
2023/08/22 02:46:11;;;;;;;0.30;0.30;;;20.90;99.90;;;;;;4414643;32;20079;-66
2023/08/22 02:48:38;;;;;;;0.30;0.30;;;20.90;99.90;;;;;;4415556;32;20075;-66
2023/08/22 02:51:04;;;;;;;1.90;1.10;;;20.80;99.90;;;;;;4414796;32;20061;-64
2023/08/22 02:53:29;;;;;;;0.28;0.28;;;20.80;99.90;;;;;;4415120;32;20054;-65
2023/08/22 02:55:55;;;;;;;0.47;0.47;;;20.70;99.90;;;;;;4416178;32;20075;-65
2023/08/22 02:58:21;;;;;;;0.50;0.50;;;20.70;99.90;;;;;;4415358;32;20035;-65
2023/08/22 03:00:46;;;;;;;0.43;0.43;;;20.80;99.90;;;;;;4415161;32;20078;-64
2023/08/22 03:03:13;;;;;;;0.45;0.35;;;20.70;99.90;;;;;;4415169;32;20053;-65
2023/08/22 03:05:38;;;;;;;3.37;0.47;;;20.70;99.90;;;;;;4415650;32;20125;-64
2023/08/22 03:08:04;;;;;;;0.30;0.30;;;20.70;99.90;;;;;;4415574;32;20076;-66
2023/08/22 03:10:29;;;;;;;0.40;0.40;;;20.70;99.90;;;;;;4415630;32;20055;-64
2023/08/22 03:12:55;;;;;;;0.25;0.25;;;20.70;99.90;;;;;;4415466;32;20031;-64
2023/08/22 03:15:20;;;;;;;4.12;0.60;;;20.70;99.90;;;;;;4414784;32;20098;-66
2023/08/22 03:17:46;;;;;;;0.20;0.20;;;20.70;99.90;;;;;;4414718;32;20082;-64
2023/08/22 03:20:11;;;;;;;0.65;0.65;;;20.70;99.90;;;;;;4415129;32;20105;-66
2023/08/22 03:22:37;;;;;;;0.35;0.35;;;20.70;99.90;;;;;;4414928;32;20031;-64
2023/08/22 03:25:03;;;;;;;0.52;0.47;;;20.80;99.90;;;;;;4414961;32;20070;-66
2023/08/22 03:27:29;;;;;;;0.62;0.60;;;20.70;99.90;;;;;;4414533;32;20069;-66
2023/08/22 03:29:55;;;;;;;1.00;0.43;;;20.70;99.90;;;;;;4415100;32;20125;-67
2023/08/22 03:32:20;;;;;;;0.40;0.40;;;20.70;99.90;;;;;;4413517;32;20050;-64
2023/08/22 03:34:46;;;;;;;0.30;0.30;;;20.60;99.90;;;;;;4414608;32;20148;-64
2023/08/22 03:37:11;;;;;;;0.30;0.30;;;20.60;99.90;;;;;;4415311;32;20087;-65
2023/08/22 03:39:37;;;;;;;0.40;0.40;;;20.60;99.90;;;;;;4415101;32;20083;-66
2023/08/22 03:42:02;;;;;;;0.30;0.30;;;20.60;99.90;;;;;;4414765;32;20105;-64
2023/08/22 03:44:29;;;;;;;0.50;0.50;;;20.50;99.90;;;;;;4415181;32;20083;-64
2023/08/22 03:46:54;;;;;;;0.62;0.60;;;20.60;99.90;;;;;;4414685;32;20049;-63
2023/08/22 03:49:20;;;;;;;0.40;0.40;;;20.60;99.90;;;;;;4413478;32;20208;-64
2023/08/22 03:51:45;;;;;;;0.30;0.30;;;20.60;99.90;;;;;;4415256;32;20058;-65
2023/08/22 03:54:11;;;;;;;0.20;0.20;;;20.60;99.90;;;;;;4411918;32;20058;-66
2023/08/22 03:56:37;;;;;;;0.30;0.30;;;20.60;99.90;;;;;;4390782;32;21183;-66
2023/08/22 03:59:02;;;;;;;2.50;0.73;;;20.60;99.90;;;;;;4390813;32;20198;-69
2023/08/22 04:01:28;;;;;;;0.30;0.30;;;20.60;99.90;;;;;;4394088;32;20144;-66
2023/08/22 04:03:53;;;;;;;0.80;0.70;;;20.50;99.90;;;;;;4395552;32;20061;-67
2023/08/22 04:06:19;;;;;;;1.65;1.08;;;20.50;99.90;;;;;;4394668;32;20099;-68
2023/08/22 04:08:44;;;;;;;0.50;0.50;;;20.60;99.90;;;;;;4394926;32;20476;-68
2023/08/22 04:11:10;;;;;;;8.35;1.83;;;20.60;99.90;;;;;;4395013;32;20070;-68
2023/08/22 04:13:35;;;;;;;0.30;0.30;;;20.60;99.90;;;;;;4393447;32;20074;-68
2023/08/22 04:16:01;;;;;;;0.50;0.50;;;20.50;99.90;;;;;;4394280;32;20074;-67
2023/08/22 04:18:26;;;;;;;0.45;0.43;;;20.50;99.90;;;;;;4393314;32;20390;-68
2023/08/22 04:20:52;;;;;;;0.43;0.43;;;20.50;99.90;;;;;;4394474;32;20457;-68
2023/08/22 04:23:17;;;;;;;0.85;0.70;;;20.50;99.90;;;;;;4393985;32;20165;-68
2023/08/22 04:25:42;;;;;;;0.20;0.20;;;20.50;99.90;;;;;;4392929;32;20428;-68
2023/08/22 04:28:08;;;;;;;2.28;0.62;;;20.50;99.90;;;;;;4392112;32;20221;-67
2023/08/22 04:30:33;;;;;;;0.30;0.30;;;20.50;99.90;;;;;;4391904;32;20085;-68
2023/08/22 04:32:59;;;;;;;0.57;0.50;;;20.50;99.90;;;;;;4392005;32;20411;-68
2023/08/22 04:35:24;;;;;;;0.43;0.43;;;20.60;99.90;;;;;;4392478;32;20082;-67
2023/08/22 04:37:50;;;;;;;0.50;0.50;;;20.60;99.90;;;;;;4394359;32;20136;-67
2023/08/22 04:40:16;;;;;;;0.30;0.30;;;20.50;99.90;;;;;;4391046;32;20082;-67
2023/08/22 04:42:41;;;;;;;0.60;0.47;;;20.60;99.90;;;;;;4394890;32;20311;-68
2023/08/22 04:45:07;;;;;;;0.25;0.25;;;20.50;99.90;;;;;;4396714;32;20145;-67
2023/08/22 04:47:33;;;;;;;0.57;0.52;;;20.50;99.90;;;;;;4396602;32;20061;-68
2023/08/22 04:49:59;;;;;;;0.47;0.47;;;20.50;99.90;;;;;;4398191;32;20062;-67
2023/08/22 04:52:24;;;;;;;0.30;0.30;;;20.60;99.90;;;;;;4397122;32;20502;-68
2023/08/22 04:54:50;;;;;;;0.35;0.35;;;20.60;99.90;;;;;;4398042;32;20094;-67
2023/08/22 04:57:15;;;;;;;0.40;0.40;;;20.70;99.90;;;;;;4395263;32;20089;-68
2023/08/22 04:59:41;;;;;;;0.30;0.30;;;20.70;99.90;;;;;;4395325;32;20099;-67
2023/08/22 05:02:06;;;;;;;1.02;0.57;;;20.70;99.90;;;;;;4395405;32;20085;-67
2023/08/22 05:04:32;;;;;;;0.30;0.30;;;20.70;99.90;;;;;;4397741;32;20506;-68
2023/08/22 05:06:57;;;;;;;0.20;0.20;;;20.80;99.90;;;;;;4397669;32;20073;-68
2023/08/22 05:09:23;;;;;;;0.20;0.20;;;20.80;99.90;;;;;;4396971;32;20073;-67
2023/08/22 05:11:50;;;;;;;0.22;0.22;;;20.80;99.90;;;;;;4396262;32;20534;-68
2023/08/22 05:14:15;;;;;;;12.60;1.10;;;20.70;99.90;;;;;;4395701;32;20118;-67
2023/08/22 05:16:42;;;;;;;0.30;0.30;;;20.80;99.90;;;;;;4396400;32;20074;-67
2023/08/22 05:19:08;;;;;;;11.77;0.40;;;20.80;99.90;;;;;;4394600;32;20066;-67
2023/08/22 05:21:33;;;;;;;0.20;0.20;;;20.70;99.90;;;;;;4396687;32;20275;-69
2023/08/22 05:23:59;;;;;;;0.40;0.40;;;20.70;99.90;;;;;;4397309;32;20121;-67
2023/08/22 05:26:24;;;;;;;0.20;0.20;;;20.70;99.90;;;;;;4395097;32;20065;-67
2023/08/22 05:28:49;;;;;;;0.30;0.30;;;20.70;99.90;;;;;;4396786;32;20065;-68
2023/08/22 05:31:20;;;;;;;0.20;0.20;;;20.70;99.90;;;;;;4397740;32;20066;-67
2023/08/22 05:33:46;;;;;;;;;;;20.70;99.90;;;;;;4397474;32;20058;-67
2023/08/22 05:36:11;;;;;;;0.20;0.20;;;20.80;99.90;;;;;;4396666;32;20319;-68
2023/08/22 05:38:36;;;;;;;0.30;0.30;;;20.80;99.90;;;;;;4396463;32;20410;-67
2023/08/22 05:41:02;;;;;;;0.30;0.30;;;20.80;99.90;;;;;;4396795;32;20093;-68
2023/08/22 05:43:28;;;;;;;0.40;0.40;;;20.90;99.90;;;;;;4396483;32;20067;-68
2023/08/22 05:45:53;;;;;;;0.20;0.20;;;20.90;99.90;;;;;;4396683;32;20074;-67
2023/08/22 05:48:18;;;;;;;0.40;0.40;;;20.90;99.90;;;;;;4396079;32;20145;-67
2023/08/22 05:50:44;;;;;;;0.30;0.30;;;21.00;99.90;;;;;;4396224;32;20090;-68
2023/08/22 05:53:09;;;;;;;2.83;0.52;;;21.00;99.90;;;;;;4396596;32;20122;-67
2023/08/22 05:55:35;;;;;;;0.30;0.30;;;21.10;99.90;;;;;;4395527;32;20090;-66
2023/08/22 05:58:00;;;;;;;0.40;0.40;;;21.10;99.90;;;;;;4395355;32;20158;-67
2023/08/22 06:00:26;;;;;;;0.30;0.30;;;21.00;99.90;;;;;;4395151;32;20082;-67
2023/08/22 06:02:51;;;;;;;2.28;1.02;;;21.10;99.90;;;;;;4394183;32;20078;-67
2023/08/22 06:05:17;;;;;;;0.37;0.37;;;21.10;99.90;;;;;;4396939;32;20066;-67
2023/08/22 06:07:42;;;;;;;0.32;0.32;;;21.10;99.90;;;;;;4396429;32;20601;-67
2023/08/22 06:10:08;;;;;;;0.20;0.20;;;21.10;99.90;;;;;;4395352;32;20078;-67
2023/08/22 06:12:33;;;;;;;0.25;0.25;;;21.00;99.90;;;;;;4397344;32;20074;-65
2023/08/22 06:14:59;;;;;;;0.30;0.30;;;21.00;99.90;;;;;;4398908;32;20061;-64
2023/08/22 06:17:24;;;;;;;0.30;0.30;;;21.00;99.90;;;;;;4397481;32;20114;-64
2023/08/22 06:19:50;;;;;;;0.30;0.30;;;21.10;99.90;;;;;;4397549;32;20152;-65
2023/08/22 06:22:15;;;;;;;0.40;0.40;;;21.20;99.90;;;;;;4396704;32;20074;-65
2023/08/22 06:24:40;;;;;;;0.75;0.75;;;21.30;99.90;;;;;;4397925;32;20534;-64
2023/08/22 06:27:06;;;;;;;5.40;0.82;;;21.30;99.90;;;;;;4398066;32;20081;-65
2023/08/22 06:29:32;;;;;;;0.45;0.32;;;21.40;99.90;;;;;;4396731;32;20065;-65
2023/08/22 06:32:00;;;;;;;0.68;0.68;;;21.40;99.90;;;;;;4398036;32;20401;-64
2023/08/22 06:34:26;;;;;;;0.30;0.30;;;21.50;99.90;;;;;;4394492;32;20078;-65
2023/08/22 06:36:51;;;;;;;2.97;1.15;;;21.50;99.90;;;;;;4391010;32;20058;-64
2023/08/22 06:39:17;;;;;;;0.52;0.50;;;21.50;99.90;;;;;;4395892;32;20131;-65
2023/08/22 06:41:42;;;;;;;0.30;0.30;;;21.50;99.90;;;;;;4397520;32;20098;-64
2023/08/22 06:44:09;;;;;;;0.20;0.20;;;21.60;99.90;;;;;;4395695;32;20182;-66
2023/08/22 06:46:36;;;;;;;0.30;0.30;;;21.60;99.90;;;;;;4395070;32;21588;-64
2023/08/22 06:49:02;;;;;;;0.30;0.30;;;21.60;99.90;;;;;;4393497;32;20094;-66
2023/08/22 06:51:28;;;;;;;0.30;0.30;;;21.70;99.90;;;;;;4393735;32;20078;-66
2023/08/22 06:53:53;;;;;;;0.30;0.30;;;21.70;99.90;;;;;;4393199;32;20074;-67
2023/08/22 06:56:19;;;;;;;0.30;0.30;;;21.80;99.90;;;;;;4393150;32;20102;-64
2023/08/22 06:58:45;;;;;;;0.20;0.20;;;21.90;99.90;;;;;;4396154;32;20105;-64
2023/08/22 07:01:10;;;;;;;0.20;0.20;;;22.00;99.90;;;;;;4397580;32;20087;-64
2023/08/22 07:03:36;;;;;;;0.30;0.30;;;22.20;99.90;;;;;;4396153;32;20063;-65
2023/08/22 07:06:02;;;;;;;0.20;0.20;;;22.30;99.90;;;;;;4397152;32;20116;-64
2023/08/22 07:08:27;;;;;;;0.45;0.45;;;22.40;99.90;;;;;;4395981;32;20086;-64
2023/08/22 07:11:02;;;;;;;0.10;0.10;;;22.30;99.90;;;;;;4395014;32;20544;-65
2023/08/22 07:13:27;;;;;;;0.25;0.25;;;22.40;99.90;;;;;;4397742;32;20074;-64
2023/08/22 07:15:52;;;;;;;0.57;0.57;;;22.40;99.90;;;;;;4393741;32;20062;-64
2023/08/22 07:18:18;;;;;;;0.52;0.40;;;22.60;99.90;;;;;;4394281;32;20074;-64
2023/08/22 07:20:45;;;;;;;0.40;0.40;;;22.60;99.90;;;;;;4395044;32;20421;-65
2023/08/22 07:23:10;;;;;;;0.20;0.20;;;22.60;99.90;;;;;;4395259;32;20078;-65
2023/08/22 07:25:36;;;;;;;0.20;0.20;;;22.70;99.90;;;;;;4395422;32;20117;-64
2023/08/22 07:28:01;;;;;;;0.28;0.28;;;22.80;99.90;;;;;;4394420;32;20391;-65
2023/08/22 07:30:27;;;;;;;0.40;0.30;;;22.80;99.90;;;;;;4392977;32;20085;-64
2023/08/22 07:32:52;;;;;;;0.20;0.20;;;22.80;99.90;;;;;;4392681;32;20388;-64
2023/08/22 07:35:18;;;;;;;0.30;0.30;;;22.90;99.90;;;;;;4391341;32;20094;-66
2023/08/22 07:37:43;;;;;;;1.08;0.47;;;22.90;99.90;;;;;;4396348;32;20572;-64
2023/08/22 07:40:09;;;;;;;0.57;0.50;;;23.00;99.90;;;;;;4397604;32;20075;-64
2023/08/22 07:42:35;;;;;;;0.20;0.20;;;23.00;99.90;;;;;;4396083;32;20606;-65
2023/08/22 07:45:01;;;;;;;0.30;0.30;;;22.90;99.90;;;;;;4394416;32;20082;-65
2023/08/22 07:47:27;;;;;;;0.30;0.30;;;22.90;99.90;;;;;;4396368;32;20498;-64
2023/08/22 07:49:52;;;;;;;0.32;0.32;;;22.90;99.90;;;;;;4395690;32;20442;-65
2023/08/22 07:52:17;;;;;;;0.45;0.30;;;22.90;99.90;;;;;;4392107;32;20074;-65
2023/08/22 07:54:43;;;;;;;1.45;1.27;;;23.00;99.90;;;;;;4392752;32;20125;-65
2023/08/22 07:57:08;;;;;;;0.30;0.30;;;23.00;99.90;;;;;;4394765;32;20122;-64
2023/08/22 07:59:34;;;;;;;0.35;0.35;;;23.00;99.90;;;;;;4393423;32;20085;-65
2023/08/22 08:01:59;;;;;;;0.60;0.60;;;23.10;99.90;;;;;;4394305;32;20308;-64
2023/08/22 08:04:25;;;;;;;0.40;0.35;;;23.10;99.90;;;;;;4392699;32;20534;-65
2023/08/22 08:06:50;;;;;;;0.30;0.30;;;23.20;99.90;;;;;;4393823;32;20155;-65
2023/08/22 08:09:16;;;;;;;0.65;0.62;;;23.20;99.90;;;;;;4393889;32;20065;-64
2023/08/22 08:11:42;;;;;;;0.35;0.35;;;23.30;99.90;;;;;;4394186;32;20066;-64
2023/08/22 08:14:07;;;;;;;1.10;0.80;;;23.40;99.90;;;;;;4395634;32;20062;-65
2023/08/22 08:16:33;;;;;;;0.20;0.20;;;23.60;99.90;;;;;;4394109;32;20264;-65
2023/08/22 08:18:58;;;;;;;1.00;0.62;;;23.60;99.90;;;;;;4395851;32;20133;-64
2023/08/22 08:21:23;;;;;;;0.40;0.30;;;23.60;99.90;;;;;;4401193;32;20149;-64
2023/08/22 08:23:50;;;;;;;0.25;0.25;;;23.60;99.90;;;;;;4399331;32;20066;-64
2023/08/22 08:26:15;;;;;;;1.10;0.70;;;23.60;99.90;;;;;;4397398;32;20089;-64
2023/08/22 08:28:41;;;;;;;0.40;0.40;;;23.60;99.90;;;;;;4401143;32;20144;-65
2023/08/22 08:31:06;;;;;;;0.20;0.20;;;23.50;99.90;;;;;;4397982;32;20467;-64
2023/08/22 08:33:32;;;;;;;0.47;0.47;;;23.40;99.90;;;;;;4399538;32;20135;-65
2023/08/22 08:35:57;;;;;;;0.47;0.25;;;23.40;99.90;;;;;;4397951;32;20085;-65
2023/08/22 08:38:23;;;;;;;0.20;0.20;;;23.30;99.90;;;;;;4400141;32;20058;-65
2023/08/22 08:40:49;;;;;;;0.22;0.22;;;23.40;99.90;;;;;;4401132;32;20089;-64
2023/08/22 08:43:15;;;;;;;0.10;0.10;;;23.40;99.90;;;;;;4401498;32;20099;-65
2023/08/22 08:45:40;;;;;;;0.20;0.20;;;23.50;99.90;;;;;;4399670;32;20106;-65
2023/08/22 08:48:07;;;;;;;0.20;0.20;;;23.50;99.90;;;;;;4398064;32;20070;-65
2023/08/22 08:50:33;;;;;;;0.50;0.50;;;23.60;99.90;;;;;;4398251;32;20094;-65
2023/08/22 08:52:59;;;;;;;0.20;0.20;;;23.80;99.90;;;;;;4399199;32;20120;-64
2023/08/22 08:55:24;;;;;;;0.20;0.20;;;23.90;99.90;;;;;;4400940;32;20089;-65
2023/08/22 08:57:53;;;;;;;0.50;0.50;;;23.90;99.90;;;;;;4400805;32;20063;-64
2023/08/22 09:00:19;;;;;;;0.40;0.40;;;23.90;99.90;;;;;;4400575;32;20956;-65
2023/08/22 09:02:45;;;;;;;2.00;0.82;;;23.90;99.90;;;;;;4399883;32;20098;-65
2023/08/22 09:05:11;;;;;;;0.20;0.20;;;24.00;99.90;;;;;;4399611;32;20112;-64
2023/08/22 09:07:37;;;;;;;0.20;0.20;;;24.00;99.90;;;;;;4397433;32;20081;-64
2023/08/22 09:10:04;;;;;;;0.22;0.22;;;23.90;99.90;;;;;;4400093;32;20102;-65
2023/08/22 09:12:36;;;;;;;0.35;0.35;;;23.90;99.90;;;;;;4401330;32;20062;-64
2023/08/22 09:15:02;;;;;;;0.20;0.20;;;23.90;99.90;;;;;;4401075;32;20061;-65
2023/08/22 09:17:29;;;;;;;0.40;0.40;;;23.90;99.90;;;;;;4400322;32;20062;-65
2023/08/22 09:19:55;;;;;;;0.20;0.20;;;23.90;99.90;;;;;;4398921;32;20496;-65
2023/08/22 09:22:29;;;;;;;0.20;0.20;;;23.90;99.90;;;;;;4399413;32;20085;-66
2023/08/22 09:24:54;;;;;;;0.22;0.22;;;24.00;99.90;;;;;;4400504;32;20086;-66
2023/08/22 09:27:22;;;;;;;0.10;0.10;;;24.00;99.90;;;;;;4399062;32;20074;-65
2023/08/22 09:29:47;;;;;;;0.40;0.40;;;24.10;99.90;;;;;;4399496;32;21307;-64
2023/08/22 09:32:13;;;;;;;0.10;0.10;;;24.40;99.90;;;;;;4395870;32;20098;-65
2023/08/22 09:34:51;;;;;;;0.65;0.35;;;24.50;99.90;;;;;;4397570;32;20069;-66
2023/08/22 09:37:32;;;;;;;0.10;0.10;;;24.70;99.90;;;;;;4398926;32;20093;-64
2023/08/22 09:39:58;;;;;;;0.73;0.73;;;24.80;99.90;;;;;;4386305;32;20530;-65
2023/08/22 09:42:27;;;;;;;0.13;0.13;;;24.90;99.90;;;;;;4397140;32;20093;-65
2023/08/22 09:44:55;;;;;;;0.30;0.30;;;25.00;99.90;;;;;;4396723;32;20090;-65
2023/08/22 09:47:25;;;;;;;0.43;0.32;;;25.10;99.90;;;;;;4396343;32;20082;-64
2023/08/22 09:49:55;;;;;;;0.37;0.37;;;25.40;99.90;;;;;;4396872;32;20094;-64
2023/08/22 09:52:20;;;;;;;0.60;0.57;;;25.50;99.90;;;;;;4397366;32;20575;-65
2023/08/22 09:54:46;;;;;;;0.90;0.80;;;25.60;99.90;;;;;;4394277;32;20074;-66
2023/08/22 09:57:11;;;;;;;0.37;0.35;;;25.70;99.90;;;;;;4396543;32;20103;-65
2023/08/22 09:59:38;;;;;;;0.20;0.20;;;25.80;99.90;;;;;;4391390;32;20128;-66
2023/08/22 10:02:05;;;;;;;0.20;0.20;;;25.60;99.90;;;;;;4396053;32;20065;-64
2023/08/22 10:04:32;;;;;;;0.30;0.22;;;25.50;99.90;;;;;;4397477;32;20094;-66
2023/08/22 10:06:57;;;;;;;0.20;0.20;;;25.50;99.90;;;;;;4395923;32;20537;-63
2023/08/22 10:09:23;;;;;;;8.93;1.40;;;25.50;99.90;;;;;;4397204;32;20073;-65
2023/08/22 10:11:54;;;;;;;2.30;0.35;;;25.60;99.90;;;;;;4396153;32;20086;-64
2023/08/22 10:14:22;;;;;;;;;;;25.60;99.90;;;;;;4397288;32;20066;-64
2023/08/22 10:16:48;;;;;;;0.40;0.40;;;25.60;99.90;;;;;;4394359;32;19952;-64
2023/08/22 10:19:13;;;;;;;0.25;0.25;;;25.50;99.90;;;;;;4394259;32;20074;-66
2023/08/22 10:21:46;;;;;;;0.10;0.10;;;25.50;99.90;;;;;;4394109;32;20134;-64
2023/08/22 10:24:32;;;;;;;9.02;0.32;;;25.60;99.90;;;;;;4397068;32;20095;-64
2023/08/22 10:27:02;;;;;;;0.43;0.43;;;25.60;99.90;;;;;;4384240;32;20114;-66
2023/08/22 10:29:31;;;;;;;0.20;0.20;;;25.80;99.90;;;;;;4395141;32;20066;-65
2023/08/22 10:32:03;;;;;;;0.10;0.10;;;25.90;99.90;;;;;;4394880;32;20125;-65
2023/08/22 10:34:49;;;;;;;1.55;0.45;;;25.90;99.90;;;;;;4397592;32;20116;-66
2023/08/22 10:37:16;;;;;;;0.10;0.10;;;26.00;99.90;;;;;;4382858;32;20082;-65
2023/08/22 10:39:44;;;;;;;4.60;0.43;;;26.00;99.90;;;;;;4394843;32;20066;-64
2023/08/22 10:42:15;;;;;;;0.22;0.22;;;26.00;99.90;;;;;;4396858;32;20743;-64
2023/08/22 10:44:42;;;;;;;0.65;0.43;;;25.90;99.90;;;;;;4394907;32;20129;-66
2023/08/22 10:47:16;;;;;;;0.22;0.22;;;25.80;99.90;;;;;;4394000;32;20517;-65
2023/08/22 10:49:42;;;;;;;0.40;0.40;;;25.80;99.90;;;;;;4397611;32;20078;-64
2023/08/22 10:52:09;;;;;;;0.20;0.20;;;25.90;99.90;;;;;;4394442;32;20086;-65
2023/08/22 10:54:56;;;;;;;0.22;0.22;;;25.90;99.90;;;;;;4390739;32;20112;-66
2023/08/22 10:57:21;;;;;;;0.40;0.40;;;26.00;99.90;;;;;;4386541;32;20665;-65
2023/08/22 10:59:59;;;;;;;0.10;0.10;;;26.10;99.90;;;;;;4396494;32;21298;-64
2023/08/22 11:02:30;;;;;;;0.15;0.15;;;26.20;99.90;;;;;;4394908;32;20083;-66
2023/08/22 11:04:56;;;;;;;;;;;26.10;99.90;;;;;;4395213;32;20093;-64
2023/08/22 11:07:22;;;;;;;0.37;0.37;;;26.00;99.90;;;;;;4395649;32;20429;-64
2023/08/22 11:09:48;;;;;;;0.20;0.20;;;26.00;99.90;;;;;;4397018;32;20129;-65
2023/08/22 11:12:22;;;;;;;2.75;0.45;;;26.00;99.90;;;;;;4396076;32;20070;-65
2023/08/22 11:14:49;;;;;;;0.40;0.40;;;25.90;99.90;;;;;;4396157;32;20070;-65
2023/08/22 11:17:16;;;;;;;0.13;0.13;;;25.80;99.90;;;;;;4396466;32;20054;-65
2023/08/22 11:19:43;;;;;;;0.40;0.40;;;25.70;99.90;;;;;;4396550;32;20086;-65
2023/08/22 11:22:09;;;;;;;0.62;0.62;;;25.70;99.90;;;;;;4393314;32;20057;-65
2023/08/22 11:24:34;;;;;;;1.85;0.80;;;25.60;99.90;;;;;;4396802;32;20078;-64
2023/08/22 11:27:04;;;;;;;0.30;0.30;;;25.70;99.90;;;;;;4396514;32;20061;-65
2023/08/22 11:29:43;;;;;;;0.70;0.50;;;25.80;99.90;;;;;;4397729;32;20462;-65
2023/08/22 11:32:27;;;;;;;0.20;0.20;;;25.80;99.90;;;;;;4396576;32;20122;-64
2023/08/22 11:34:55;;;;;;;0.10;0.10;;;25.90;99.90;;;;;;4383021;32;20070;-64
2023/08/22 11:37:21;;;;;;;1.35;0.43;;;25.90;99.90;;;;;;4394584;32;20479;-65
2023/08/22 11:39:50;;;;;;;0.10;0.10;;;26.00;99.90;;;;;;4395276;32;20066;-65
2023/08/22 11:42:17;;;;;;;0.30;0.20;;;26.10;99.90;;;;;;4395789;32;20065;-65
2023/08/22 11:45:04;;;;;;;3.83;0.50;;;26.30;99.90;;;;;;4396811;32;20101;-65
2023/08/22 11:47:48;;;;;;;0.15;0.15;;;26.50;99.90;;;;;;4380780;32;89233;-65
2023/08/22 11:50:17;;;;;;;0.40;0.40;;;26.70;99.90;;;;;;4395080;32;20626;-64
2023/08/22 11:52:45;;;;;;;0.50;0.50;;;26.90;99.90;;;;;;4394758;32;20094;-64
2023/08/22 11:55:12;;;;;;;0.10;0.10;;;27.00;99.90;;;;;;4389554;32;20231;-65
2023/08/22 11:57:40;;;;;;;8.40;1.48;;;27.10;99.90;;;;;;4394203;32;20522;-65
2023/08/22 12:00:07;;;;;;;0.30;0.30;;;27.00;99.90;;;;;;4390776;32;20081;-64
2023/08/22 12:02:33;;;;;;;0.70;0.52;;;27.00;99.90;;;;;;4394497;32;20110;-64
2023/08/22 12:04:59;;;;;;;0.47;0.20;;;27.00;99.90;;;;;;4399446;32;20078;-64
2023/08/22 12:07:25;;;;;;;13.05;1.45;;;26.80;99.90;;;;;;4396356;32;20126;-64
2023/08/22 12:10:07;;;;;;;1.65;0.75;;;26.80;99.90;;;;;;4395044;32;20077;-63
2023/08/22 12:12:32;;;;;;;0.47;0.30;;;26.50;99.90;;;;;;4394416;32;20113;-65
2023/08/22 12:14:59;;;;;;;0.13;0.13;;;26.50;99.90;;;;;;4396661;32;20129;-64
2023/08/22 12:17:25;;;;;;;0.30;0.30;;;26.50;99.90;;;;;;4395343;32;20069;-63
2023/08/22 12:19:50;;;;;;;0.10;0.10;;;26.60;99.90;;;;;;4393899;32;20079;-64
2023/08/22 12:22:16;;;;;;;1.40;0.40;;;26.80;99.90;;;;;;4394853;32;20066;-65
2023/08/22 12:24:45;;;;;;;1.45;0.43;;;27.00;99.90;;;;;;4397761;32;20085;-63
2023/08/22 12:27:11;;;;;;;0.30;0.30;;;27.20;99.90;;;;;;4394751;32;20058;-64
2023/08/22 12:29:38;;;;;;;1.10;0.40;;;27.20;99.90;;;;;;4394798;32;20077;-64
2023/08/22 12:32:03;;;;;;;0.47;0.47;;;27.40;99.90;;;;;;4395856;32;20062;-64
2023/08/22 12:34:29;;;;;;;0.28;0.28;;;27.30;99.90;;;;;;4395247;32;20152;-64
2023/08/22 12:36:54;;;;;;;5.72;1.33;;;27.00;99.90;;;;;;4392384;32;20062;-64
2023/08/22 12:39:20;;;;;;;0.30;0.30;;;27.00;99.90;;;;;;4395848;32;20062;-64
2023/08/22 12:41:45;;;;;;;0.30;0.30;;;26.90;99.90;;;;;;4395803;32;20755;-64
2023/08/22 12:44:11;;;;;;;0.57;0.55;;;26.70;99.90;;;;;;4393587;32;20098;-65
2023/08/22 12:46:36;;;;;;;3.47;0.50;;;26.40;99.90;;;;;;4388430;32;20170;-64